createdAt,value
2022-08-02T00:00:55.756Z,78.80
2022-08-02T00:03:23.760Z,78.90
2022-08-02T00:05:53.229Z,78.90
2022-08-02T00:08:20.974Z,78.90
2022-08-02T00:10:47.822Z,78.90
2022-08-02T00:13:14.485Z,78.70
2022-08-02T00:15:41.174Z,78.70
2022-08-02T00:18:07.841Z,78.70
2022-08-02T00:20:34.610Z,78.60
2022-08-02T00:23:01.448Z,78.70
2022-08-02T00:25:28.038Z,78.90
2022-08-02T00:27:54.718Z,78.70
2022-08-02T00:30:21.347Z,78.80
2022-08-02T00:32:47.931Z,78.70
2022-08-02T00:35:14.587Z,78.80
2022-08-02T00:37:41.592Z,78.90
2022-08-02T00:40:09.319Z,78.90
2022-08-02T00:42:36.000Z,78.80
2022-08-02T00:45:02.639Z,78.80
2022-08-02T00:47:29.297Z,78.70
2022-08-02T00:49:55.957Z,78.60
2022-08-02T00:52:23.771Z,78.70
2022-08-02T00:54:50.657Z,78.50
2022-08-02T00:57:17.396Z,78.50
2022-08-02T00:59:44.065Z,78.50
2022-08-02T01:02:11.076Z,78.60
2022-08-02T01:04:37.982Z,78.60
2022-08-02T01:07:12.843Z,78.60
2022-08-02T01:09:41.532Z,78.60
2022-08-02T01:12:08.557Z,78.40
2022-08-02T01:14:35.636Z,78.50
2022-08-02T01:17:02.319Z,78.60
2022-08-02T01:19:35.382Z,78.60
2022-08-02T01:22:12.930Z,78.50
2022-08-02T01:24:51.680Z,78.50
2022-08-02T01:27:39.932Z,78.60
2022-08-02T01:30:07.311Z,78.50
2022-08-02T01:32:37.008Z,78.50
2022-08-02T01:35:23.986Z,78.40
2022-08-02T01:37:56.550Z,78.50
2022-08-02T01:40:28.840Z,78.40
2022-08-02T01:42:56.092Z,78.40
2022-08-02T01:45:24.708Z,78.40
2022-08-02T01:47:52.184Z,78.40
2022-08-02T01:50:21.640Z,78.40
2022-08-02T01:52:53.471Z,78.40
2022-08-02T01:55:35.252Z,78.40
2022-08-02T01:58:17.344Z,78.40
2022-08-02T02:00:44.768Z,78.40
2022-08-02T02:03:16.447Z,78.50
2022-08-02T02:05:44.185Z,78.50
2022-08-02T02:08:11.983Z,78.40
2022-08-02T02:10:39.473Z,78.30
2022-08-02T02:13:12.221Z,78.40
2022-08-02T02:15:41.765Z,78.30
2022-08-02T02:18:12.256Z,78.20
2022-08-02T02:20:41.287Z,78.20
2022-08-02T02:23:08.024Z,78.00
2022-08-02T02:25:36.060Z,78.10
2022-08-02T02:28:05.069Z,78.10
2022-08-02T02:30:32.814Z,78.00
2022-08-02T02:33:01.910Z,77.80
2022-08-02T02:35:29.584Z,77.70
2022-08-02T02:37:57.236Z,77.70
2022-08-02T02:40:24.363Z,77.50
2022-08-02T02:42:51.981Z,77.60
2022-08-02T02:45:20.800Z,77.50
2022-08-02T02:47:49.614Z,77.40
2022-08-02T02:50:20.060Z,77.50
2022-08-02T02:52:47.492Z,77.50
2022-08-02T02:55:14.611Z,77.40
2022-08-02T02:57:41.763Z,77.30
2022-08-02T03:00:10.311Z,77.30
2022-08-02T03:02:38.688Z,77.30
2022-08-02T03:05:06.817Z,77.20
2022-08-02T03:07:33.998Z,77.00
2022-08-02T03:10:01.104Z,77.00
2022-08-02T03:12:31.778Z,77.00
2022-08-02T03:15:04.556Z,76.90
2022-08-02T03:17:41.217Z,76.80
2022-08-02T03:20:09.488Z,76.70
2022-08-02T03:22:36.276Z,76.60
2022-08-02T03:25:02.884Z,76.50
2022-08-02T03:27:29.527Z,76.40
2022-08-02T03:29:56.168Z,76.30
2022-08-02T03:32:23.133Z,76.10
2022-08-02T03:34:49.862Z,76.10
2022-08-02T03:37:16.777Z,76.10
2022-08-02T03:39:52.899Z,75.90
2022-08-02T03:42:23.515Z,75.70
2022-08-02T03:44:50.487Z,75.80
2022-08-02T03:47:17.576Z,75.60
2022-08-02T03:49:44.530Z,75.60
2022-08-02T03:52:11.744Z,75.60
2022-08-02T03:54:45.338Z,75.40
2022-08-02T03:57:13.099Z,75.30
2022-08-02T03:59:43.312Z,75.30
2022-08-02T04:02:11.369Z,75.00
2022-08-02T04:04:38.372Z,75.60
2022-08-02T04:07:07.239Z,75.80
2022-08-02T04:09:34.400Z,75.80
2022-08-02T04:12:01.093Z,75.80
2022-08-02T04:14:27.750Z,75.50
2022-08-02T04:17:02.682Z,75.30
2022-08-02T04:19:32.503Z,75.10
2022-08-02T04:22:01.670Z,75.10
2022-08-02T04:24:32.229Z,75.20
2022-08-02T04:27:06.384Z,75.00
2022-08-02T04:29:47.830Z,74.90
2022-08-02T04:32:15.064Z,75.00
2022-08-02T04:34:47.426Z,74.90
2022-08-02T04:37:21.395Z,75.00
2022-08-02T04:39:48.060Z,74.90
2022-08-02T04:42:24.901Z,75.20
2022-08-02T04:44:52.377Z,74.70
2022-08-02T04:47:54.082Z,74.40
2022-08-02T04:50:07.284Z,74.10
2022-08-02T04:52:33.997Z,73.90
2022-08-02T04:55:00.737Z,73.90
2022-08-02T04:57:52.449Z,73.90
2022-08-02T05:00:19.995Z,73.50
2022-08-02T05:02:46.845Z,73.60
2022-08-02T05:05:13.657Z,73.60
2022-08-02T05:07:40.296Z,73.50
2022-08-02T05:10:07.353Z,73.60
2022-08-02T05:12:34.016Z,73.60
2022-08-02T05:15:00.734Z,73.80
2022-08-02T05:17:27.508Z,73.50
2022-08-02T05:19:54.154Z,73.50
2022-08-02T05:22:20.767Z,73.50
2022-08-02T05:24:47.449Z,73.30
2022-08-02T05:27:17.209Z,73.40
2022-08-02T05:29:53.084Z,73.40
2022-08-02T05:32:20.914Z,73.30
2022-08-02T05:34:50.557Z,73.10
2022-08-02T05:37:17.302Z,73.20
2022-08-02T05:39:55.677Z,73.20
2022-08-02T05:42:23.262Z,72.90
2022-08-02T05:44:49.960Z,73.00
2022-08-02T05:47:16.569Z,72.90
2022-08-02T05:49:43.326Z,72.80
2022-08-02T05:52:10.331Z,72.80
2022-08-02T05:54:43.140Z,72.80
2022-08-02T05:57:24.889Z,72.80
2022-08-02T06:00:00.731Z,72.70
2022-08-02T06:02:31.576Z,72.70
2022-08-02T06:05:09.299Z,72.60
2022-08-02T06:07:36.704Z,72.60
2022-08-02T06:10:06.581Z,72.40
2022-08-02T06:12:35.838Z,72.50
2022-08-02T06:15:03.645Z,72.60
2022-08-02T06:17:30.708Z,72.70
2022-08-02T06:20:00.672Z,72.60
2022-08-02T06:22:32.906Z,72.50
2022-08-02T06:25:04.010Z,72.50
2022-08-02T06:27:30.731Z,72.50
2022-08-02T06:29:57.896Z,72.50
2022-08-02T06:32:26.631Z,72.30
2022-08-02T06:34:53.244Z,72.30
2022-08-02T06:37:26.308Z,72.40
2022-08-02T06:39:58.028Z,72.40
2022-08-02T06:42:31.339Z,72.50
2022-08-02T06:44:58.473Z,72.40
2022-08-02T06:47:25.547Z,72.40
2022-08-02T06:49:54.262Z,72.40
2022-08-02T06:52:31.321Z,72.20
2022-08-02T06:54:59.166Z,72.00
2022-08-02T06:57:26.200Z,71.90
2022-08-02T06:59:52.927Z,71.60
2022-08-02T07:02:19.630Z,71.40
2022-08-02T07:04:46.430Z,71.10
2022-08-02T07:07:13.240Z,70.60
2022-08-02T07:09:39.873Z,70.30
2022-08-02T07:12:24.035Z,69.80
2022-08-02T07:14:50.679Z,69.80
2022-08-02T07:17:17.300Z,69.80
2022-08-02T07:19:44.487Z,69.60
2022-08-02T07:22:13.038Z,69.70
2022-08-02T07:24:40.232Z,69.30
2022-08-02T07:27:11.981Z,68.60
2022-08-02T07:29:46.818Z,67.90
2022-08-02T07:32:24.091Z,67.20
2022-08-02T07:34:53.506Z,66.80
2022-08-02T07:37:35.278Z,65.70
2022-08-02T07:40:13.819Z,66.20
2022-08-02T07:42:42.683Z,66.50
2022-08-02T07:45:09.768Z,66.60
2022-08-02T07:47:40.144Z,66.70
2022-08-02T07:50:07.419Z,66.80
2022-08-02T07:52:34.167Z,67.00
2022-08-02T07:55:01.171Z,67.40
2022-08-02T07:57:27.841Z,67.20
2022-08-02T07:59:54.445Z,67.10
2022-08-02T08:02:21.156Z,66.50
2022-08-02T08:04:47.828Z,66.20
2022-08-02T08:07:14.443Z,64.70
2022-08-02T08:09:44.026Z,63.80
2022-08-02T08:12:11.708Z,63.20
2022-08-02T08:14:39.015Z,63.20
2022-08-02T08:17:06.298Z,63.50
2022-08-02T08:19:50.290Z,63.70
2022-08-02T08:22:19.363Z,63.80
2022-08-02T08:24:46.442Z,64.30
2022-08-02T08:27:14.641Z,64.30
2022-08-02T08:29:42.299Z,64.10
2022-08-02T08:32:12.822Z,64.50
2022-08-02T08:34:42.628Z,63.80
2022-08-02T08:37:09.316Z,63.90
2022-08-02T08:39:53.656Z,63.40
2022-08-02T08:42:28.214Z,63.00
2022-08-02T08:44:56.320Z,62.50
2022-08-02T08:47:24.087Z,62.10
2022-08-02T08:49:52.251Z,62.30
2022-08-02T08:52:20.215Z,62.30
2022-08-02T08:54:48.652Z,62.40
2022-08-02T08:57:16.589Z,62.30
2022-08-02T08:59:43.583Z,62.10
2022-08-02T09:02:21.504Z,62.00
2022-08-02T09:04:53.023Z,61.80
2022-08-02T09:07:22.642Z,61.30
2022-08-02T09:09:49.307Z,60.60
2022-08-02T09:12:16.937Z,59.70
2022-08-02T09:14:43.672Z,58.80
2022-08-02T09:17:12.602Z,57.90
2022-08-02T09:19:46.024Z,57.70
2022-08-02T09:22:14.772Z,57.40
2022-08-02T09:24:49.635Z,57.30
2022-08-02T09:27:17.412Z,57.70
2022-08-02T09:30:11.588Z,58.60
2022-08-02T09:32:44.441Z,58.70
2022-08-02T09:35:11.065Z,59.00
2022-08-02T09:37:37.653Z,59.50
2022-08-02T09:40:06.871Z,59.40
2022-08-02T09:42:34.373Z,58.00
2022-08-02T09:45:01.598Z,57.30
2022-08-02T09:47:29.070Z,57.70
2022-08-02T09:49:58.411Z,57.30
2022-08-02T09:52:43.061Z,57.20
2022-08-02T09:55:11.758Z,55.30
2022-08-02T09:57:38.636Z,54.70
2022-08-02T10:00:15.098Z,54.80
2022-08-02T10:03:03.777Z,54.90
2022-08-02T10:05:30.985Z,55.00
2022-08-02T10:08:09.719Z,55.50
2022-08-02T10:10:36.429Z,55.50
2022-08-02T10:13:03.081Z,55.20
2022-08-02T10:15:29.711Z,55.10
2022-08-02T10:17:56.514Z,55.10
2022-08-02T10:20:23.754Z,54.90
2022-08-02T10:22:51.421Z,55.00
2022-08-02T10:25:18.957Z,54.50
2022-08-02T10:28:04.730Z,55.00
2022-08-02T10:30:32.570Z,54.50
2022-08-02T10:33:00.005Z,54.40
2022-08-02T10:35:27.104Z,53.90
2022-08-02T10:37:55.039Z,54.10
2022-08-02T10:40:26.494Z,53.60
2022-08-02T10:42:54.217Z,53.40
2022-08-02T10:45:22.303Z,53.50
2022-08-02T10:47:58.058Z,53.20
2022-08-02T10:50:48.254Z,53.10
2022-08-02T10:53:41.227Z,53.00
2022-08-02T10:56:09.498Z,52.90
2022-08-02T10:58:36.174Z,52.60
2022-08-02T11:01:26.744Z,52.20
2022-08-02T11:04:09.779Z,52.10
2022-08-02T11:06:57.032Z,52.10
2022-08-02T11:09:31.960Z,51.90
2022-08-02T11:12:04.058Z,52.20
2022-08-02T11:14:31.391Z,52.80
2022-08-02T11:16:57.965Z,53.00
2022-08-02T11:19:25.250Z,53.00
2022-08-02T11:22:05.357Z,52.70
2022-08-02T11:24:32.166Z,52.30
2022-08-02T11:27:00.012Z,52.20
2022-08-02T11:29:40.591Z,52.50
2022-08-02T11:32:08.295Z,52.40
2022-08-02T11:34:37.652Z,52.80
2022-08-02T11:37:05.455Z,52.50
2022-08-02T11:39:32.119Z,52.50
2022-08-02T11:41:59.388Z,52.30
2022-08-02T11:44:26.745Z,52.50
2022-08-02T11:46:53.846Z,52.30
2022-08-02T11:49:20.538Z,52.00
2022-08-02T11:51:54.271Z,51.60
2022-08-02T11:54:40.124Z,51.30
2022-08-02T11:57:14.296Z,51.10
2022-08-02T11:59:44.778Z,50.50
2022-08-02T12:02:12.192Z,50.30
2022-08-02T12:04:39.439Z,50.30
2022-08-02T12:07:07.381Z,50.50
2022-08-02T12:09:39.238Z,50.80
2022-08-02T12:12:07.674Z,50.40
2022-08-02T12:14:41.395Z,49.80
2022-08-02T12:17:26.899Z,49.50
2022-08-02T12:19:53.612Z,49.20
2022-08-02T12:22:24.492Z,49.20
2022-08-02T12:24:58.546Z,49.30
2022-08-02T12:27:32.288Z,49.10
2022-08-02T12:30:00.520Z,48.70
2022-08-02T12:32:27.211Z,48.50
2022-08-02T12:35:08.060Z,48.60
2022-08-02T12:37:34.725Z,48.30
2022-08-02T12:40:17.736Z,47.80
2022-08-02T12:42:48.573Z,47.20
2022-08-02T12:45:15.284Z,46.70
2022-08-02T12:47:46.022Z,46.60
2022-08-02T12:50:17.666Z,46.50
2022-08-02T12:52:47.042Z,46.50
2022-08-02T12:55:15.026Z,46.90
2022-08-02T12:57:52.116Z,47.40
2022-08-02T13:00:29.206Z,47.60
2022-08-02T13:02:56.624Z,47.60
2022-08-02T13:05:23.640Z,47.20
2022-08-02T13:07:50.795Z,46.70
2022-08-02T13:10:17.494Z,45.70
2022-08-02T13:12:44.232Z,46.10
2022-08-02T13:15:12.633Z,46.70
2022-08-02T13:17:59.124Z,46.90
2022-08-02T13:20:27.496Z,47.00
2022-08-02T13:22:55.912Z,47.70
2022-08-02T13:25:30.724Z,47.80
2022-08-02T13:27:57.324Z,47.80
2022-08-02T13:30:23.915Z,45.80
2022-08-02T13:32:50.595Z,46.50
2022-08-02T13:35:18.083Z,47.30
2022-08-02T13:37:45.477Z,47.80
2022-08-02T13:40:21.546Z,48.40
2022-08-02T13:42:48.783Z,49.00
2022-08-02T13:45:15.572Z,49.40
2022-08-02T13:48:03.572Z,49.90
2022-08-02T13:50:30.271Z,50.60
2022-08-02T13:52:57.098Z,51.10
2022-08-02T13:55:24.286Z,51.20
2022-08-02T13:57:53.654Z,51.00
2022-08-02T14:00:34.977Z,50.50
2022-08-02T14:03:03.855Z,49.50
2022-08-02T14:05:38.660Z,48.70
2022-08-02T14:08:16.646Z,46.30
2022-08-02T14:10:44.054Z,43.10
2022-08-02T14:13:10.723Z,44.50
2022-08-02T14:15:37.377Z,46.30
2022-08-02T14:18:04.011Z,46.80
2022-08-02T14:20:30.741Z,44.50
2022-08-02T14:22:57.411Z,41.10
2022-08-02T14:25:24.143Z,39.50
2022-08-02T14:27:50.845Z,38.20
2022-08-02T14:30:17.769Z,37.70
2022-08-02T14:32:44.480Z,38.30
2022-08-02T14:35:11.185Z,38.70
2022-08-02T14:37:37.932Z,37.70
2022-08-02T14:40:04.860Z,37.00
2022-08-02T14:42:31.620Z,36.70
2022-08-02T14:44:58.371Z,36.30
2022-08-02T14:47:25.142Z,37.60
2022-08-02T14:49:51.889Z,38.10
2022-08-02T14:52:19.318Z,39.80
2022-08-02T14:54:46.841Z,40.70
2022-08-02T14:57:13.836Z,41.10
2022-08-02T14:59:42.626Z,41.20
2022-08-02T15:02:10.268Z,41.60
2022-08-02T15:04:42.533Z,40.50
2022-08-02T15:07:09.894Z,39.90
2022-08-02T15:09:39.441Z,39.60
2022-08-02T15:12:10.152Z,39.60
2022-08-02T15:14:36.900Z,40.90
2022-08-02T15:17:03.828Z,39.50
2022-08-02T15:19:57.506Z,37.70
2022-08-02T15:22:19.026Z,39.90
2022-08-02T15:24:46.666Z,38.60
2022-08-02T15:27:14.763Z,37.40
2022-08-02T15:29:42.721Z,39.40
2022-08-02T15:32:09.775Z,38.10
2022-08-02T15:34:36.701Z,41.30
2022-08-02T15:37:03.467Z,42.90
2022-08-02T15:39:30.101Z,44.90
2022-08-02T15:41:56.820Z,45.20
2022-08-02T15:44:24.855Z,40.40
2022-08-02T15:46:51.752Z,42.70
2022-08-02T15:49:20.404Z,40.90
2022-08-02T15:51:47.156Z,41.80
2022-08-02T15:54:13.984Z,43.20
2022-08-02T15:56:40.605Z,46.20
2022-08-02T15:59:07.267Z,42.00
2022-08-02T16:01:37.983Z,40.30
2022-08-02T16:04:07.092Z,39.50
2022-08-02T16:06:35.972Z,41.40
2022-08-02T16:09:02.823Z,44.30
2022-08-02T16:11:29.661Z,46.30
2022-08-02T16:13:56.735Z,48.00
2022-08-02T16:16:24.490Z,49.30
2022-08-02T16:18:51.471Z,49.20
2022-08-02T16:21:19.257Z,51.00
2022-08-02T16:24:02.123Z,53.20
2022-08-02T16:26:34.112Z,55.30
2022-08-02T16:29:01.802Z,54.60
2022-08-02T16:31:28.479Z,55.90
2022-08-02T16:33:57.050Z,56.00
2022-08-02T16:36:24.834Z,56.20
2022-08-02T16:38:52.134Z,56.50
2022-08-02T16:41:18.778Z,57.10
2022-08-02T16:43:45.465Z,58.10
2022-08-02T16:46:12.078Z,58.40
2022-08-02T16:48:39.427Z,58.90
2022-08-02T16:51:13.903Z,59.40
2022-08-02T16:53:59.932Z,60.10
2022-08-02T16:56:28.400Z,60.60
2022-08-02T16:58:55.312Z,60.20
2022-08-02T17:01:27.547Z,60.20
2022-08-02T17:03:56.009Z,60.00
2022-08-02T17:06:26.337Z,59.70
2022-08-02T17:08:56.294Z,59.50
2022-08-02T17:11:25.678Z,59.50
2022-08-02T17:13:55.273Z,59.90
2022-08-02T17:16:25.794Z,60.30
2022-08-02T17:18:54.011Z,60.20
2022-08-02T17:21:21.276Z,60.50
2022-08-02T17:24:05.471Z,60.20
2022-08-02T17:26:35.411Z,59.80
2022-08-02T17:29:15.163Z,60.30
2022-08-02T17:32:05.153Z,60.40
2022-08-02T17:34:33.784Z,60.00
2022-08-02T17:37:00.676Z,59.50
2022-08-02T17:39:34.041Z,59.30
2022-08-02T17:42:01.512Z,59.10
2022-08-02T17:44:37.596Z,59.20
2022-08-02T17:47:07.223Z,59.00
2022-08-02T17:49:42.778Z,59.60
2022-08-02T17:52:49.173Z,60.30
2022-08-02T17:54:59.067Z,60.90
2022-08-02T17:57:55.470Z,61.50
2022-08-02T18:00:12.757Z,61.90
2022-08-02T18:02:41.922Z,62.20
2022-08-02T18:05:11.841Z,62.40
2022-08-02T18:07:50.207Z,62.60
2022-08-02T18:10:19.998Z,63.00
2022-08-02T18:12:47.197Z,63.80
2022-08-02T18:15:15.679Z,63.90
2022-08-02T18:17:42.378Z,64.60
2022-08-02T18:20:11.110Z,64.00
2022-08-02T18:22:38.199Z,64.60
2022-08-02T18:25:09.082Z,65.50
2022-08-02T18:27:38.901Z,66.40
2022-08-02T18:30:07.851Z,67.30
2022-08-02T18:33:53.977Z,68.20
2022-08-02T18:35:21.651Z,68.30
2022-08-02T18:37:56.883Z,68.90
2022-08-02T18:40:30.747Z,69.40
2022-08-02T18:42:57.707Z,69.70
2022-08-02T18:45:24.997Z,70.10
2022-08-02T18:48:11.667Z,70.20
2022-08-02T18:50:44.198Z,70.70
2022-08-02T18:53:13.652Z,70.80
2022-08-02T18:55:59.115Z,71.10
2022-08-02T18:58:26.938Z,70.90
2022-08-02T19:00:55.943Z,70.40
2022-08-02T19:03:22.590Z,70.20
2022-08-02T19:05:52.113Z,70.20
2022-08-02T19:11:07.770Z,70.50
2022-08-02T19:13:36.970Z,70.60
2022-08-02T19:16:07.531Z,70.70
2022-08-02T19:18:34.182Z,71.00
2022-08-02T19:21:05.191Z,71.10
2022-08-02T19:23:32.584Z,71.60
2022-08-02T19:25:59.606Z,71.30
2022-08-02T19:28:26.846Z,71.30
2022-08-02T19:30:54.610Z,71.30
2022-08-02T19:33:54.364Z,71.30
2022-08-02T19:36:08.001Z,71.40
2022-08-02T19:38:35.260Z,71.70
2022-08-02T19:41:01.941Z,71.80
2022-08-02T19:44:25.767Z,71.90
2022-08-02T19:46:16.115Z,72.40
2022-08-02T19:48:43.058Z,72.30
2022-08-02T19:51:12.964Z,72.40
2022-08-02T19:53:47.539Z,72.30
2022-08-02T19:56:21.766Z,72.00
2022-08-02T19:58:53.982Z,72.10
2022-08-02T20:01:28.452Z,72.20
2022-08-02T20:04:04.673Z,72.40
2022-08-02T20:06:31.293Z,72.10
2022-08-02T20:08:59.137Z,72.30
2022-08-02T20:11:27.537Z,72.50
2022-08-02T20:13:54.322Z,72.20
2022-08-02T20:16:27.813Z,72.60
2022-08-02T20:18:55.875Z,72.80
2022-08-02T20:21:35.379Z,73.10
2022-08-02T20:24:09.369Z,73.50
2022-08-02T20:26:38.127Z,73.30
2022-08-02T20:29:05.035Z,73.30
2022-08-02T20:31:31.727Z,73.30
2022-08-02T20:33:58.913Z,73.30
2022-08-02T20:36:26.500Z,73.60
2022-08-02T20:38:54.429Z,73.70
2022-08-02T20:41:22.225Z,73.90
2022-08-02T20:43:49.460Z,73.50
2022-08-02T20:46:16.267Z,73.60
2022-08-02T20:48:44.185Z,73.60
2022-08-02T20:51:12.366Z,73.20
2022-08-02T20:53:54.698Z,73.20
2022-08-02T20:56:22.367Z,73.50
2022-08-02T20:58:52.090Z,73.10
2022-08-02T21:04:06.511Z,73.10
2022-08-02T21:06:33.139Z,73.20
2022-08-02T21:08:59.795Z,73.30
2022-08-02T21:11:33.323Z,73.30
2022-08-02T21:14:07.414Z,73.10
2022-08-02T21:16:36.251Z,73.20
2022-08-02T21:19:09.647Z,73.30
2022-08-02T21:21:36.859Z,73.20
2022-08-02T21:24:03.702Z,73.20
2022-08-02T21:26:31.113Z,73.40
2022-08-02T21:29:03.776Z,73.50
2022-08-02T21:31:33.511Z,74.00
2022-08-02T21:34:02.826Z,74.20
2022-08-02T21:36:32.579Z,73.80
2022-08-02T21:39:04.790Z,73.60
2022-08-02T21:41:38.607Z,73.90
2022-08-02T21:44:13.022Z,73.90
2022-08-02T21:46:40.775Z,73.90
2022-08-02T21:49:11.354Z,74.40
2022-08-02T21:51:39.243Z,74.10
2022-08-02T21:54:18.009Z,74.60
2022-08-02T21:56:53.228Z,74.80
2022-08-02T21:59:25.719Z,74.70
2022-08-02T22:01:54.193Z,75.00
2022-08-02T22:04:23.977Z,75.20
2022-08-02T22:06:50.797Z,75.20
2022-08-02T22:09:43.983Z,75.40
2022-08-02T22:12:12.846Z,75.30
2022-08-02T22:14:44.148Z,75.70
2022-08-02T22:17:16.503Z,75.60
2022-08-02T22:19:54.144Z,75.50
2022-08-02T22:22:28.014Z,75.90
2022-08-02T22:24:55.951Z,75.60
2022-08-02T22:27:23.658Z,75.60
2022-08-02T22:30:10.585Z,75.60
2022-08-02T22:32:56.318Z,75.70
2022-08-02T22:35:22.993Z,75.70
2022-08-02T22:38:15.392Z,75.70
2022-08-02T22:40:36.352Z,75.80
2022-08-02T22:43:02.997Z,75.70
2022-08-02T22:45:29.891Z,75.80
2022-08-02T22:48:03.490Z,75.80
2022-08-02T22:50:30.216Z,75.70
2022-08-02T22:52:57.050Z,75.80
2022-08-02T22:55:24.519Z,75.90
2022-08-02T22:57:59.526Z,76.00
2022-08-02T22:58:47.002Z,70.50
2022-08-02T22:58:56.833Z,73.10
2022-08-02T23:00:26.340Z,75.60
2022-08-02T23:02:53.070Z,75.80
2022-08-02T23:05:20.835Z,75.70
2022-08-02T23:07:47.596Z,76.00
2022-08-02T23:10:14.401Z,75.60
2022-08-02T23:12:41.064Z,75.70
2022-08-02T23:15:08.131Z,75.80
2022-08-02T23:17:53.300Z,76.00
2022-08-02T23:20:20.352Z,75.80
2022-08-02T23:22:46.947Z,75.20
2022-08-02T23:25:14.473Z,75.20
2022-08-02T23:27:49.932Z,75.30
2022-08-02T23:30:17.919Z,75.40
2022-08-02T23:32:44.676Z,75.40
2022-08-02T23:35:17.288Z,75.40
2022-08-02T23:38:00.351Z,75.30
2022-08-02T23:40:39.360Z,74.90
2022-08-02T23:43:14.947Z,75.20
2022-08-02T23:45:42.821Z,75.60
2022-08-02T23:48:09.423Z,74.80
2022-08-02T23:50:36.129Z,74.80
2022-08-02T23:53:02.808Z,74.50
2022-08-02T23:55:29.610Z,74.60
2022-08-02T23:57:56.259Z,74.70
